createdAt,value
2022-09-06T00:01:24.000Z,287.46
2022-09-06T00:03:30.000Z,287.52
2022-09-06T00:04:57.000Z,287.59
2022-09-06T00:07:03.000Z,287.59
2022-09-06T00:08:30.000Z,287.59
2022-09-06T00:10:36.000Z,287.4
2022-09-06T00:12:02.000Z,287.4
2022-09-06T00:14:08.000Z,287.46
2022-09-06T00:15:35.000Z,287.52
2022-09-06T00:17:41.000Z,287.59
2022-09-06T00:19:07.000Z,287.46
2022-09-06T00:21:14.000Z,287.52
2022-09-06T00:24:05.000Z,287.46
2022-09-06T00:25:31.000Z,287.46
2022-09-06T00:27:37.000Z,287.46
2022-09-06T00:29:04.000Z,287.46
2022-09-06T00:31:10.000Z,287.34
2022-09-06T00:32:37.000Z,287.46
2022-09-06T00:34:43.000Z,287.4
2022-09-06T00:36:09.000Z,287.46
2022-09-06T00:38:15.000Z,287.46
2022-09-06T00:39:42.000Z,287.46
2022-09-06T00:41:48.000Z,287.4
2022-09-06T00:43:15.000Z,287.46
2022-09-06T00:45:21.000Z,287.46
2022-09-06T00:46:47.000Z,287.46
2022-09-06T00:48:53.000Z,287.4
2022-09-06T00:50:20.000Z,287.27
2022-09-06T00:52:26.000Z,287.27
2022-09-06T00:53:53.000Z,287.27
2022-09-06T00:55:59.000Z,287.27
2022-09-06T00:57:25.000Z,287.21
2022-09-06T00:59:31.000Z,287.21
2022-09-06T01:02:23.000Z,287.27
2022-09-06T01:03:49.000Z,287.27
2022-09-06T01:05:55.000Z,287.15
2022-09-06T01:07:22.000Z,287.15
2022-09-06T01:09:28.000Z,286.96
2022-09-06T01:10:55.000Z,286.96
2022-09-06T01:13:01.000Z,287.09
2022-09-06T01:14:27.000Z,287.09
2022-09-06T01:16:33.000Z,287.09
2022-09-06T01:18:00.000Z,287.02
2022-09-06T01:20:06.000Z,287.02
2022-09-06T01:21:32.000Z,287.02
2022-09-06T01:23:38.000Z,287.02
2022-09-06T01:25:05.000Z,286.96
2022-09-06T01:27:11.000Z,287.02
2022-09-06T01:28:37.000Z,287.02
2022-09-06T01:30:44.000Z,287.15
2022-09-06T01:32:10.000Z,287.09
2022-09-06T01:34:16.000Z,287.02
2022-09-06T01:35:43.000Z,287.09
2022-09-06T01:37:49.000Z,286.96
2022-09-06T01:40:40.000Z,287.09
2022-09-06T01:42:07.000Z,287.09
2022-09-06T01:44:13.000Z,287.09
2022-09-06T01:45:39.000Z,287.02
2022-09-06T01:47:46.000Z,287.02
2022-09-06T01:49:12.000Z,286.96
2022-09-06T01:51:18.000Z,286.96
2022-09-06T01:52:45.000Z,287.02
2022-09-06T01:54:51.000Z,287.09
2022-09-06T01:56:17.000Z,287.02
2022-09-06T01:58:23.000Z,286.96
2022-09-06T01:59:50.000Z,286.96
2022-09-06T02:01:56.000Z,286.9
2022-09-06T02:03:23.000Z,286.96
2022-09-06T02:05:29.000Z,286.96
2022-09-06T02:06:55.000Z,287.02
2022-09-06T02:09:01.000Z,287.02
2022-09-06T02:10:28.000Z,286.96
2022-09-06T02:12:34.000Z,286.96
2022-09-06T02:14:01.000Z,286.96
2022-09-06T02:16:07.000Z,286.96
2022-09-06T02:18:58.000Z,286.9
2022-09-06T02:20:24.000Z,286.96
2022-09-06T02:22:30.000Z,286.96
2022-09-06T02:23:57.000Z,286.9
2022-09-06T02:26:03.000Z,286.84
2022-09-06T02:27:29.000Z,286.84
2022-09-06T02:29:35.000Z,286.84
2022-09-06T02:31:02.000Z,286.9
2022-09-06T02:33:08.000Z,286.84
2022-09-06T02:34:35.000Z,286.84
2022-09-06T02:36:41.000Z,286.77
2022-09-06T02:38:07.000Z,286.77
2022-09-06T02:40:13.000Z,286.84
2022-09-06T02:41:40.000Z,286.84
2022-09-06T02:43:46.000Z,286.84
2022-09-06T02:45:12.000Z,286.84
2022-09-06T02:47:18.000Z,286.84
2022-09-06T02:48:45.000Z,286.9
2022-09-06T02:50:51.000Z,286.96
2022-09-06T02:52:18.000Z,286.96
2022-09-06T02:54:24.000Z,287.02
2022-09-06T02:57:15.000Z,287.09
2022-09-06T02:58:41.000Z,287.15
2022-09-06T03:00:47.000Z,287.15
2022-09-06T03:02:14.000Z,287.15
2022-09-06T03:04:20.000Z,287.09
2022-09-06T03:05:46.000Z,287.02
2022-09-06T03:07:53.000Z,287.02
2022-09-06T03:09:19.000Z,287.09
2022-09-06T03:11:25.000Z,287.02
2022-09-06T03:12:52.000Z,286.96
2022-09-06T03:14:58.000Z,286.96
2022-09-06T03:16:24.000Z,286.96
2022-09-06T03:18:31.000Z,286.9
2022-09-06T03:19:57.000Z,286.9
2022-09-06T03:22:03.000Z,286.96
2022-09-06T03:23:30.000Z,286.96
2022-09-06T03:25:36.000Z,286.96
2022-09-06T03:27:02.000Z,286.9
2022-09-06T03:29:09.000Z,286.96
2022-09-06T03:30:35.000Z,286.96
2022-09-06T03:32:41.000Z,287.02
2022-09-06T03:35:33.000Z,286.96
2022-09-06T03:36:59.000Z,287.71
2022-09-06T03:39:05.000Z,288.09
2022-09-06T03:40:32.000Z,288.02
2022-09-06T03:42:38.000Z,288.15
2022-09-06T03:44:04.000Z,288.27
2022-09-06T03:46:10.000Z,288.15
2022-09-06T03:47:37.000Z,288.09
2022-09-06T03:49:43.000Z,287.9
2022-09-06T03:51:10.000Z,287.84
2022-09-06T03:53:16.000Z,287.77
2022-09-06T03:54:42.000Z,287.9
2022-09-06T03:56:48.000Z,287.71
2022-09-06T03:58:15.000Z,287.52
2022-09-06T04:00:21.000Z,287.59
2022-09-06T04:01:48.000Z,287.77
2022-09-06T04:03:54.000Z,287.9
2022-09-06T04:05:20.000Z,287.9
2022-09-06T04:07:26.000Z,287.84
2022-09-06T04:08:53.000Z,287.84
2022-09-06T04:10:59.000Z,287.59
2022-09-06T04:13:50.000Z,287.59
2022-09-06T04:15:17.000Z,287.59
2022-09-06T04:17:23.000Z,287.71
2022-09-06T04:18:49.000Z,287.71
2022-09-06T04:20:55.000Z,287.59
2022-09-06T04:22:22.000Z,287.59
2022-09-06T04:24:28.000Z,287.77
2022-09-06T04:25:54.000Z,287.59
2022-09-06T04:28:00.000Z,287.46
2022-09-06T04:29:27.000Z,287.34
2022-09-06T04:31:33.000Z,287.46
2022-09-06T04:33:00.000Z,287.52
2022-09-06T04:35:06.000Z,287.46
2022-09-06T04:36:32.000Z,287.52
2022-09-06T04:38:39.000Z,287.46
2022-09-06T04:40:05.000Z,287.52
2022-09-06T04:42:11.000Z,287.52
2022-09-06T04:43:38.000Z,287.59
2022-09-06T04:45:44.000Z,287.52
2022-09-06T04:47:11.000Z,287.52
2022-09-06T04:49:17.000Z,287.46
2022-09-06T04:52:08.000Z,287.4
2022-09-06T04:53:34.000Z,287.46
2022-09-06T04:55:40.000Z,287.52
2022-09-06T04:57:07.000Z,287.52
2022-09-06T04:59:13.000Z,287.52
2022-09-06T05:00:40.000Z,287.59
2022-09-06T05:02:46.000Z,287.59
2022-09-06T05:04:12.000Z,287.65
2022-09-06T05:06:18.000Z,287.65
2022-09-06T05:07:45.000Z,287.59
2022-09-06T05:09:51.000Z,287.65
2022-09-06T05:11:17.000Z,287.65
2022-09-06T05:13:23.000Z,287.65
2022-09-06T05:14:50.000Z,287.65
2022-09-06T05:16:56.000Z,287.59
2022-09-06T05:18:23.000Z,287.59
2022-09-06T05:20:29.000Z,287.65
2022-09-06T05:21:55.000Z,287.71
2022-09-06T05:24:02.000Z,287.71
2022-09-06T05:25:28.000Z,287.84
2022-09-06T05:27:34.000Z,287.9
2022-09-06T05:30:26.000Z,287.77
2022-09-06T05:31:52.000Z,287.77
2022-09-06T05:33:58.000Z,287.65
2022-09-06T05:35:25.000Z,287.65
2022-09-06T05:37:31.000Z,287.71
2022-09-06T05:38:57.000Z,287.71
2022-09-06T05:41:04.000Z,287.71
2022-09-06T05:42:30.000Z,287.65
2022-09-06T05:44:36.000Z,287.59
2022-09-06T05:46:03.000Z,287.59
2022-09-06T05:48:09.000Z,287.65
2022-09-06T05:49:35.000Z,287.65
2022-09-06T05:51:42.000Z,287.65
2022-09-06T05:53:08.000Z,287.65
2022-09-06T05:55:14.000Z,287.59
2022-09-06T05:56:41.000Z,287.59
2022-09-06T05:58:47.000Z,287.52
2022-09-06T06:00:13.000Z,287.59
2022-09-06T06:02:19.000Z,287.59
2022-09-06T06:03:46.000Z,287.65
2022-09-06T06:05:52.000Z,287.77
2022-09-06T06:08:43.000Z,287.77
2022-09-06T06:10:10.000Z,287.77
2022-09-06T06:12:16.000Z,287.71
2022-09-06T06:13:43.000Z,287.77
2022-09-06T06:15:49.000Z,287.71
2022-09-06T06:17:15.000Z,287.71
2022-09-06T06:19:21.000Z,287.77
2022-09-06T06:20:48.000Z,287.84
2022-09-06T06:22:54.000Z,287.9
2022-09-06T06:24:20.000Z,287.84
2022-09-06T06:26:26.000Z,287.9
2022-09-06T06:27:53.000Z,287.96
2022-09-06T06:29:59.000Z,288.09
2022-09-06T06:31:26.000Z,288.09
2022-09-06T06:33:32.000Z,288.09
2022-09-06T06:34:58.000Z,288.15
2022-09-06T06:37:04.000Z,288.15
2022-09-06T06:38:31.000Z,288.15
2022-09-06T06:40:37.000Z,288.21
2022-09-06T06:42:03.000Z,288.27
2022-09-06T06:44:10.000Z,288.34
2022-09-06T06:47:01.000Z,288.4
2022-09-06T06:48:27.000Z,288.46
2022-09-06T06:50:33.000Z,288.59
2022-09-06T06:52:00.000Z,288.65
2022-09-06T06:54:06.000Z,288.65
2022-09-06T06:55:32.000Z,288.71
2022-09-06T06:57:39.000Z,288.77
2022-09-06T06:59:05.000Z,288.77
2022-09-06T07:01:11.000Z,288.84
2022-09-06T07:02:38.000Z,288.9
2022-09-06T07:04:44.000Z,288.9
2022-09-06T07:06:10.000Z,288.96
2022-09-06T07:08:17.000Z,289.02
2022-09-06T07:12:20.000Z,289.09
2022-09-06T07:13:46.000Z,289.09
2022-09-06T07:15:52.000Z,289.09
2022-09-06T07:17:19.000Z,289.15
2022-09-06T07:21:22.000Z,289.15
2022-09-06T07:23:43.000Z,289.15
2022-09-06T07:28:54.000Z,289.21
2022-09-06T07:31:00.000Z,289.27
2022-09-06T07:32:26.000Z,289.27
2022-09-06T07:34:33.000Z,289.34
2022-09-06T07:35:59.000Z,289.4
2022-09-06T07:38:05.000Z,289.4
2022-09-06T07:39:32.000Z,289.34
2022-09-06T07:41:38.000Z,289.4
2022-09-06T07:43:05.000Z,289.46
2022-09-06T07:45:11.000Z,289.52
2022-09-06T07:46:37.000Z,289.52
2022-09-06T07:48:43.000Z,289.59
2022-09-06T07:52:46.000Z,289.71
2022-09-06T07:54:42.000Z,289.77
2022-09-06T07:56:48.000Z,289.9
2022-09-06T07:58:14.000Z,289.9
2022-09-06T08:00:20.000Z,289.9
2022-09-06T08:01:47.000Z,290.09
2022-09-06T08:03:53.000Z,290.21
2022-09-06T08:08:41.000Z,290.46
2022-09-06T08:11:03.000Z,290.65
2022-09-06T08:12:30.000Z,290.71
2022-09-06T08:14:36.000Z,290.77
2022-09-06T08:16:02.000Z,290.84
2022-09-06T08:18:09.000Z,290.96
2022-09-06T08:19:35.000Z,290.96
2022-09-06T08:21:41.000Z,291.09
2022-09-06T08:23:08.000Z,291.02
2022-09-06T08:25:14.000Z,291.15
2022-09-06T08:26:41.000Z,291.15
2022-09-06T08:28:47.000Z,291.21
2022-09-06T08:30:13.000Z,291.27
2022-09-06T08:32:20.000Z,291.4
2022-09-06T08:33:46.000Z,291.46
2022-09-06T08:35:52.000Z,291.46
2022-09-06T08:37:19.000Z,291.65
2022-09-06T08:39:29.000Z,291.77
2022-09-06T08:40:55.000Z,291.9
2022-09-06T08:43:02.000Z,292.02
2022-09-06T08:45:53.000Z,292.02
2022-09-06T08:47:20.000Z,292.15
2022-09-06T08:49:26.000Z,292.4
2022-09-06T08:50:53.000Z,292.4
2022-09-06T08:52:59.000Z,292.4
2022-09-06T08:54:42.000Z,292.52
2022-09-06T08:56:48.000Z,292.59
2022-09-06T08:58:14.000Z,292.65
2022-09-06T09:00:20.000Z,292.71
2022-09-06T09:01:47.000Z,292.9
2022-09-06T09:03:53.000Z,293.09
2022-09-06T09:05:20.000Z,293.02
2022-09-06T09:07:26.000Z,293.09
2022-09-06T09:08:53.000Z,293.21
2022-09-06T09:10:59.000Z,293.4
2022-09-06T09:12:25.000Z,293.4
2022-09-06T09:14:31.000Z,293.52
2022-09-06T09:15:58.000Z,293.59
2022-09-06T09:18:04.000Z,293.84
2022-09-06T09:19:31.000Z,293.84
2022-09-06T09:21:37.000Z,293.84
2022-09-06T09:24:28.000Z,294.15
2022-09-06T09:25:55.000Z,294.15
2022-09-06T09:28:01.000Z,294.34
2022-09-06T09:29:27.000Z,294.4
2022-09-06T09:31:39.000Z,294.59
2022-09-06T09:33:06.000Z,294.46
2022-09-06T09:35:12.000Z,294.52
2022-09-06T09:36:39.000Z,294.71
2022-09-06T09:39:47.000Z,294.77
2022-09-06T09:41:13.000Z,294.96
2022-09-06T09:43:19.000Z,295.02
2022-09-06T09:44:46.000Z,295.15
2022-09-06T09:46:52.000Z,295.15
2022-09-06T09:48:19.000Z,295.15
2022-09-06T09:50:25.000Z,295.27
2022-09-06T09:51:51.000Z,295.65
2022-09-06T09:53:58.000Z,295.65
2022-09-06T09:55:24.000Z,295.65
2022-09-06T09:57:30.000Z,295.71
2022-09-06T09:58:57.000Z,295.77
2022-09-06T10:01:03.000Z,295.9
2022-09-06T10:05:51.000Z,296.34
2022-09-06T10:08:03.000Z,296.52
2022-09-06T10:09:29.000Z,296.27
2022-09-06T10:11:35.000Z,296.21
2022-09-06T10:13:02.000Z,296.27
2022-09-06T10:15:08.000Z,296.27
2022-09-06T10:16:34.000Z,296.21
2022-09-06T10:18:41.000Z,296.27
2022-09-06T10:20:07.000Z,296.27
2022-09-06T10:22:13.000Z,296.09
2022-09-06T10:26:16.000Z,296.4
2022-09-06T10:27:43.000Z,296.52
2022-09-06T10:30:05.000Z,296.77
2022-09-06T10:31:32.000Z,296.96
2022-09-06T10:33:38.000Z,297.15
2022-09-06T10:35:05.000Z,297.34
2022-09-06T10:37:11.000Z,298.09
2022-09-06T10:38:37.000Z,298.15
2022-09-06T10:40:43.000Z,297.84
2022-09-06T10:43:35.000Z,297.9
2022-09-06T10:45:01.000Z,298.02
2022-09-06T10:47:07.000Z,298.15
2022-09-06T10:48:34.000Z,298.52
2022-09-06T10:50:40.000Z,298.59
2022-09-06T10:52:07.000Z,298.59
2022-09-06T10:54:13.000Z,298.77
2022-09-06T10:55:39.000Z,298.71
2022-09-06T10:57:49.000Z,298.77
2022-09-06T10:59:42.000Z,298.9
2022-09-06T11:01:48.000Z,299.15
2022-09-06T11:05:51.000Z,298.9
2022-09-06T11:07:17.000Z,299.09
2022-09-06T11:09:24.000Z,299.02
2022-09-06T11:10:50.000Z,299.15
2022-09-06T11:12:56.000Z,299.09
2022-09-06T11:14:23.000Z,299.09
2022-09-06T11:16:29.000Z,299.09
2022-09-06T11:17:56.000Z,299.15
2022-09-06T11:20:02.000Z,299.09
2022-09-06T11:22:53.000Z,299.52
2022-09-06T11:24:19.000Z,299.46
2022-09-06T11:26:26.000Z,299.34
2022-09-06T11:27:52.000Z,299.52
2022-09-06T11:30:02.000Z,299.65
2022-09-06T11:34:05.000Z,299.77
2022-09-06T11:35:31.000Z,300.02
2022-09-06T11:37:37.000Z,299.9
2022-09-06T11:39:04.000Z,299.65
2022-09-06T11:41:10.000Z,299.34
2022-09-06T11:42:36.000Z,299.15
2022-09-06T11:44:43.000Z,299.09
2022-09-06T11:46:09.000Z,299.15
2022-09-06T11:48:15.000Z,299.34
2022-09-06T11:49:42.000Z,299.65
2022-09-06T11:51:48.000Z,299.84
2022-09-06T11:53:15.000Z,299.84
2022-09-06T11:55:21.000Z,300.02
2022-09-06T11:56:47.000Z,300.02
2022-09-06T11:58:54.000Z,300.4
2022-09-06T12:01:45.000Z,300.15
2022-09-06T12:05:48.000Z,299.71
2022-09-06T12:07:14.000Z,299.65
2022-09-06T12:09:21.000Z,300.02
2022-09-06T12:10:47.000Z,299.96
2022-09-06T12:12:53.000Z,299.59
2022-09-06T12:14:20.000Z,299.52
2022-09-06T12:16:26.000Z,299.9
2022-09-06T12:17:53.000Z,299.96
2022-09-06T12:19:59.000Z,299.96
2022-09-06T12:21:25.000Z,300.02
2022-09-06T12:23:31.000Z,300.09
2022-09-06T12:24:58.000Z,300.09
2022-09-06T12:27:04.000Z,300.34
2022-09-06T12:28:31.000Z,300.59
2022-09-06T12:30:37.000Z,300.71
2022-09-06T12:32:03.000Z,300.46
2022-09-06T12:34:09.000Z,300.59
2022-09-06T12:35:36.000Z,300.59
2022-09-06T12:38:02.000Z,300.46
2022-09-06T12:40:54.000Z,300.84
2022-09-06T12:42:20.000Z,301.09
2022-09-06T12:44:26.000Z,301.21
2022-09-06T12:45:53.000Z,301.15
2022-09-06T12:47:59.000Z,301.09
2022-09-06T12:49:25.000Z,301.21
2022-09-06T12:51:32.000Z,301.21
2022-09-06T12:52:58.000Z,301.21
2022-09-06T12:55:04.000Z,301.27
2022-09-06T12:56:31.000Z,301.27
2022-09-06T12:58:37.000Z,301.34
2022-09-06T13:00:04.000Z,301.27
2022-09-06T13:02:10.000Z,301.09
2022-09-06T13:03:37.000Z,301.02
2022-09-06T13:05:43.000Z,301.27
2022-09-06T13:07:09.000Z,301.34
2022-09-06T13:09:15.000Z,301.34
2022-09-06T13:10:42.000Z,301.34
2022-09-06T13:12:48.000Z,301.59
2022-09-06T13:14:15.000Z,301.65
2022-09-06T13:16:21.000Z,302.02
2022-09-06T13:19:12.000Z,301.65
2022-09-06T13:20:39.000Z,301.21
2022-09-06T13:22:45.000Z,300.9
2022-09-06T13:24:11.000Z,300.77
2022-09-06T13:26:18.000Z,300.65
2022-09-06T13:27:44.000Z,300.59
2022-09-06T13:29:50.000Z,300.4
2022-09-06T13:31:17.000Z,300.34
2022-09-06T13:33:23.000Z,300.27
2022-09-06T13:34:50.000Z,300.34
2022-09-06T13:36:56.000Z,300.52
2022-09-06T13:38:22.000Z,300.77
2022-09-06T13:40:29.000Z,301.34
2022-09-06T13:41:55.000Z,301.52
2022-09-06T13:44:01.000Z,301.77
2022-09-06T13:45:28.000Z,301.77
2022-09-06T13:47:34.000Z,301.84
2022-09-06T13:49:00.000Z,302.02
2022-09-06T13:51:07.000Z,302.21
2022-09-06T13:52:33.000Z,302.34
2022-09-06T13:54:39.000Z,301.9
2022-09-06T13:57:30.000Z,301.34
2022-09-06T13:58:57.000Z,301.21
2022-09-06T14:01:03.000Z,301.52
2022-09-06T14:02:30.000Z,301.71
2022-09-06T14:04:36.000Z,302.21
2022-09-06T14:06:02.000Z,302.4
2022-09-06T14:08:09.000Z,302.4
2022-09-06T14:09:35.000Z,302.34
2022-09-06T14:11:41.000Z,302.52
2022-09-06T14:13:12.000Z,302.52
2022-09-06T14:15:18.000Z,302.52
2022-09-06T14:16:45.000Z,302.4
2022-09-06T14:18:51.000Z,302.46
2022-09-06T14:20:18.000Z,302.52
2022-09-06T14:22:24.000Z,302.59
2022-09-06T14:23:50.000Z,302.65
2022-09-06T14:25:56.000Z,302.46
2022-09-06T14:27:23.000Z,302.27
2022-09-06T14:29:29.000Z,301.96
2022-09-06T14:30:56.000Z,301.84
2022-09-06T14:33:02.000Z,301.71
2022-09-06T14:35:53.000Z,301.96
2022-09-06T14:37:20.000Z,301.96
2022-09-06T14:39:26.000Z,302.09
2022-09-06T14:40:52.000Z,302.15
2022-09-06T14:42:59.000Z,302.15
2022-09-06T14:44:25.000Z,302.21
2022-09-06T14:46:31.000Z,302.34
2022-09-06T14:47:58.000Z,302.21
2022-09-06T14:50:04.000Z,302.21
2022-09-06T14:51:31.000Z,302.02
2022-09-06T14:53:37.000Z,302.27
2022-09-06T14:55:05.000Z,302.46
2022-09-06T14:57:11.000Z,302.71
2022-09-06T14:58:38.000Z,302.84
2022-09-06T15:00:44.000Z,302.9
2022-09-06T15:02:10.000Z,303.09
2022-09-06T15:04:17.000Z,303.09
2022-09-06T15:05:43.000Z,302.96
2022-09-06T15:07:50.000Z,302.9
2022-09-06T15:09:16.000Z,303.09
2022-09-06T15:11:22.000Z,303.15
2022-09-06T15:14:13.000Z,302.9
2022-09-06T15:15:40.000Z,302.9
2022-09-06T15:17:46.000Z,303.09
2022-09-06T15:19:13.000Z,302.9
2022-09-06T15:21:19.000Z,302.96
2022-09-06T15:22:45.000Z,302.84
2022-09-06T15:24:52.000Z,302.71
2022-09-06T15:26:18.000Z,302.65
2022-09-06T15:28:24.000Z,302.71
2022-09-06T15:29:51.000Z,302.84
2022-09-06T15:31:57.000Z,302.77
2022-09-06T15:33:24.000Z,302.59
2022-09-06T15:35:30.000Z,302.21
2022-09-06T15:36:56.000Z,302.15
2022-09-06T15:39:02.000Z,301.9
2022-09-06T15:40:29.000Z,301.71
2022-09-06T15:42:35.000Z,301.71
2022-09-06T15:44:02.000Z,301.71
2022-09-06T15:46:08.000Z,301.9
2022-09-06T15:47:35.000Z,302.09
2022-09-06T15:49:41.000Z,302.02
2022-09-06T15:52:32.000Z,302.27
2022-09-06T15:53:58.000Z,302.09
2022-09-06T15:56:05.000Z,301.9
2022-09-06T15:57:31.000Z,301.96
2022-09-06T15:59:37.000Z,301.9
2022-09-06T16:01:04.000Z,301.96
2022-09-06T16:03:10.000Z,302.09
2022-09-06T16:04:36.000Z,302.02
2022-09-06T16:06:43.000Z,301.84
2022-09-06T16:08:09.000Z,301.77
2022-09-06T16:10:15.000Z,301.52
2022-09-06T16:11:42.000Z,301.46
2022-09-06T16:13:48.000Z,301.4
2022-09-06T16:15:15.000Z,301.27
2022-09-06T16:17:21.000Z,301.27
2022-09-06T16:18:47.000Z,301.15
2022-09-06T16:20:53.000Z,300.9
2022-09-06T16:22:20.000Z,300.9
2022-09-06T16:24:26.000Z,300.9
2022-09-06T16:25:53.000Z,300.77
2022-09-06T16:27:59.000Z,300.84
2022-09-06T16:30:50.000Z,300.71
2022-09-06T16:32:17.000Z,300.77
2022-09-06T16:34:23.000Z,300.9
2022-09-06T16:35:49.000Z,300.77
2022-09-06T16:37:56.000Z,300.71
2022-09-06T16:39:22.000Z,300.59
2022-09-06T16:41:29.000Z,300.52
2022-09-06T16:42:55.000Z,300.46
2022-09-06T16:45:01.000Z,300.4
2022-09-06T16:46:28.000Z,300.34
2022-09-06T16:48:34.000Z,300.34
2022-09-06T16:50:00.000Z,300.21
2022-09-06T16:52:07.000Z,299.96
2022-09-06T16:53:33.000Z,299.84
2022-09-06T16:55:39.000Z,299.9
2022-09-06T16:57:06.000Z,299.59
2022-09-06T16:59:12.000Z,299.46
2022-09-06T17:00:39.000Z,299.27
2022-09-06T17:02:45.000Z,299.27
2022-09-06T17:04:11.000Z,299.27
2022-09-06T17:06:18.000Z,299.34
2022-09-06T17:09:09.000Z,299.15
2022-09-06T17:10:35.000Z,299.09
2022-09-06T17:12:42.000Z,299.02
2022-09-06T17:14:08.000Z,299.02
2022-09-06T17:16:14.000Z,298.96
2022-09-06T17:17:46.000Z,298.96
2022-09-06T17:19:52.000Z,298.77
2022-09-06T17:21:19.000Z,298.71
2022-09-06T17:23:25.000Z,298.59
2022-09-06T17:24:52.000Z,298.52
2022-09-06T17:26:58.000Z,298.4
2022-09-06T17:28:24.000Z,298.27
2022-09-06T17:30:31.000Z,298.21
2022-09-06T17:31:57.000Z,298.27
2022-09-06T17:34:03.000Z,298.15
2022-09-06T17:35:30.000Z,298.15
2022-09-06T17:37:36.000Z,297.96
2022-09-06T17:39:02.000Z,297.96
2022-09-06T17:41:09.000Z,297.84
2022-09-06T17:42:35.000Z,297.77
2022-09-06T17:44:41.000Z,297.59
2022-09-06T17:47:32.000Z,297.46
2022-09-06T17:48:59.000Z,297.46
2022-09-06T17:51:05.000Z,297.46
2022-09-06T17:52:32.000Z,297.21
2022-09-06T17:54:38.000Z,297.02
2022-09-06T17:56:04.000Z,296.96
2022-09-06T17:58:10.000Z,296.65
2022-09-06T17:59:37.000Z,296.52
2022-09-06T18:01:43.000Z,296.34
2022-09-06T18:03:10.000Z,296.21
2022-09-06T18:05:16.000Z,296.15
2022-09-06T18:06:43.000Z,296.09
2022-09-06T18:08:49.000Z,295.96
2022-09-06T18:10:16.000Z,295.84
2022-09-06T18:12:22.000Z,295.59
2022-09-06T18:13:48.000Z,295.52
2022-09-06T18:15:55.000Z,295.34
2022-09-06T18:17:21.000Z,295.27
2022-09-06T18:19:27.000Z,295.21
2022-09-06T18:20:54.000Z,295.15
2022-09-06T18:23:00.000Z,295.02
2022-09-06T18:25:51.000Z,294.84
2022-09-06T18:27:18.000Z,294.77
2022-09-06T18:29:24.000Z,294.59
2022-09-06T18:30:50.000Z,294.59
2022-09-06T18:32:56.000Z,294.59
2022-09-06T18:34:23.000Z,294.52
2022-09-06T18:36:29.000Z,294.46
2022-09-06T18:37:57.000Z,294.4
2022-09-06T18:40:03.000Z,294.21
2022-09-06T18:41:30.000Z,294.15
2022-09-06T18:43:36.000Z,294.15
2022-09-06T18:45:02.000Z,294.21
2022-09-06T18:47:08.000Z,294.15
2022-09-06T18:48:35.000Z,294.02
2022-09-06T18:50:41.000Z,294.02
2022-09-06T18:52:08.000Z,294.02
2022-09-06T18:54:14.000Z,293.9
2022-09-06T18:55:40.000Z,293.96
2022-09-06T18:57:47.000Z,294.09
2022-09-06T18:59:13.000Z,294.02
2022-09-06T19:01:19.000Z,293.96
2022-09-06T19:04:11.000Z,293.84
2022-09-06T19:05:37.000Z,293.71
2022-09-06T19:07:43.000Z,293.65
2022-09-06T19:09:10.000Z,293.84
2022-09-06T19:11:16.000Z,294.15
2022-09-06T19:12:42.000Z,294.59
2022-09-06T19:14:49.000Z,295.02
2022-09-06T19:16:15.000Z,295.09
2022-09-06T19:18:21.000Z,295.09
2022-09-06T19:19:48.000Z,295.09
2022-09-06T19:21:54.000Z,295.09
2022-09-06T19:23:21.000Z,295.09
2022-09-06T19:25:27.000Z,294.96
2022-09-06T19:26:53.000Z,294.65
2022-09-06T19:28:59.000Z,294.21
2022-09-06T19:30:26.000Z,294.09
2022-09-06T19:32:32.000Z,293.96
2022-09-06T19:33:59.000Z,293.9
2022-09-06T19:36:05.000Z,293.77
2022-09-06T19:37:36.000Z,293.77
2022-09-06T19:39:43.000Z,293.84
2022-09-06T19:42:34.000Z,293.84
2022-09-06T19:44:00.000Z,293.59
2022-09-06T19:46:07.000Z,293.52
2022-09-06T19:47:33.000Z,293.52
2022-09-06T19:49:39.000Z,293.27
2022-09-06T19:51:06.000Z,293.09
2022-09-06T19:53:12.000Z,293.15
2022-09-06T19:54:38.000Z,293.09
2022-09-06T19:56:45.000Z,293.27
2022-09-06T19:58:11.000Z,293.34
2022-09-06T20:00:17.000Z,293.34
2022-09-06T20:01:44.000Z,293.27
2022-09-06T20:03:50.000Z,293.27
2022-09-06T20:05:17.000Z,293.02
2022-09-06T20:07:23.000Z,292.96
2022-09-06T20:08:49.000Z,292.96
2022-09-06T20:10:56.000Z,292.9
2022-09-06T20:12:22.000Z,292.84
2022-09-06T20:14:28.000Z,292.84
2022-09-06T20:15:55.000Z,292.96
2022-09-06T20:18:01.000Z,292.84
2022-09-06T20:20:52.000Z,292.77
2022-09-06T20:22:19.000Z,292.65
2022-09-06T20:24:25.000Z,292.52
2022-09-06T20:25:52.000Z,292.71
2022-09-06T20:27:58.000Z,292.65
2022-09-06T20:29:24.000Z,292.46
2022-09-06T20:31:31.000Z,292.52
2022-09-06T20:32:57.000Z,292.65
2022-09-06T20:35:03.000Z,292.84
2022-09-06T20:36:30.000Z,292.9
2022-09-06T20:38:36.000Z,292.59
2022-09-06T20:40:03.000Z,292.52
2022-09-06T20:42:09.000Z,292.21
2022-09-06T20:43:35.000Z,292.09
2022-09-06T20:45:42.000Z,292.09
2022-09-06T20:47:08.000Z,292.09
2022-09-06T20:49:14.000Z,292.15
2022-09-06T20:50:41.000Z,292.15
2022-09-06T20:52:47.000Z,291.9
2022-09-06T20:54:14.000Z,291.71
2022-09-06T20:56:20.000Z,291.52
2022-09-06T20:59:11.000Z,291.71
2022-09-06T21:00:38.000Z,291.65
2022-09-06T21:02:44.000Z,291.59
2022-09-06T21:04:10.000Z,291.52
2022-09-06T21:06:17.000Z,291.71
2022-09-06T21:07:43.000Z,291.65
2022-09-06T21:09:49.000Z,291.4
2022-09-06T21:11:16.000Z,291.4
2022-09-06T21:13:22.000Z,291.52
2022-09-06T21:14:48.000Z,291.59
2022-09-06T21:16:55.000Z,291.4
2022-09-06T21:18:21.000Z,291.27
2022-09-06T21:20:27.000Z,291.15
2022-09-06T21:21:54.000Z,291.21
2022-09-06T21:24:00.000Z,291.15
2022-09-06T21:25:26.000Z,291.15
2022-09-06T21:27:33.000Z,291.09
2022-09-06T21:28:59.000Z,291.02
2022-09-06T21:31:05.000Z,290.77
2022-09-06T21:32:32.000Z,290.84
2022-09-06T21:34:38.000Z,290.84
2022-09-06T21:37:29.000Z,290.9
2022-09-06T21:38:56.000Z,290.96
2022-09-06T21:41:02.000Z,290.77
2022-09-06T21:42:28.000Z,290.71
2022-09-06T21:44:34.000Z,290.71
2022-09-06T21:46:01.000Z,290.71
2022-09-06T21:48:07.000Z,290.59
2022-09-06T21:49:33.000Z,290.59
2022-09-06T21:51:39.000Z,290.59
2022-09-06T21:53:06.000Z,290.52
2022-09-06T21:55:12.000Z,290.4
2022-09-06T21:56:40.000Z,290.46
2022-09-06T21:58:46.000Z,290.59
2022-09-06T22:00:12.000Z,290.84
2022-09-06T22:02:18.000Z,290.71
2022-09-06T22:03:45.000Z,290.65
2022-09-06T22:05:51.000Z,290.71
2022-09-06T22:07:18.000Z,290.84
2022-09-06T22:09:24.000Z,290.52
2022-09-06T22:10:51.000Z,290.4
2022-09-06T22:12:57.000Z,290.59
2022-09-06T22:15:48.000Z,290.4
2022-09-06T22:17:15.000Z,290.4
2022-09-06T22:19:21.000Z,290.4
2022-09-06T22:20:47.000Z,290.34
2022-09-06T22:22:53.000Z,290.15
2022-09-06T22:24:20.000Z,290.21
2022-09-06T22:26:26.000Z,290.09
2022-09-06T22:27:53.000Z,290.15
2022-09-06T22:29:59.000Z,290.21
2022-09-06T22:31:25.000Z,290.15
2022-09-06T22:33:31.000Z,290.09
2022-09-06T22:34:58.000Z,290.02
2022-09-06T22:37:04.000Z,289.9
2022-09-06T22:38:31.000Z,289.9
2022-09-06T22:40:37.000Z,289.84
2022-09-06T22:42:03.000Z,289.77
2022-09-06T22:44:09.000Z,289.77
2022-09-06T22:45:36.000Z,289.77
2022-09-06T22:47:42.000Z,289.77
2022-09-06T22:49:09.000Z,289.71
2022-09-06T22:51:15.000Z,289.77
2022-09-06T22:54:06.000Z,289.77
2022-09-06T22:55:32.000Z,289.71
2022-09-06T22:57:38.000Z,289.59
2022-09-06T22:59:05.000Z,289.52
2022-09-06T23:01:11.000Z,289.52
2022-09-06T23:02:38.000Z,289.52
2022-09-06T23:04:44.000Z,289.4
2022-09-06T23:06:10.000Z,289.4
2022-09-06T23:08:16.000Z,289.4
2022-09-06T23:09:43.000Z,289.4
2022-09-06T23:11:49.000Z,289.4
2022-09-06T23:13:15.000Z,289.46
2022-09-06T23:15:22.000Z,289.46
2022-09-06T23:16:48.000Z,289.46
2022-09-06T23:18:54.000Z,289.52